Time;durP1;ratioP1;P1;durP2;ratioP2;P2;SDS_P1;SDS_P2;PMS_P1;PMS_P2;Temp;Humidity;BMP_temperature;BMP_pressure;BME280_temperature;BME280_humidity;BME280_pressure;Samples;Min_cycle;Max_cycle;Signal;HPM_P1;HPM_P2
2022/12/12 00:00:29;;;;;;;11.83;6.90;;;2.00;99.90;;;;;;5055458;28;20471;-80
2022/12/12 00:02:56;;;;;;;14.23;7.00;;;2.00;99.90;;;;;;5055942;28;20181;-80
2022/12/12 00:05:21;;;;;;;10.13;6.50;;;2.00;99.90;;;;;;5055920;28;20467;-79
2022/12/12 00:07:47;;;;;;;13.70;7.40;;;2.10;99.90;;;;;;5052897;28;20405;-78
2022/12/12 00:10:12;;;;;;;12.63;8.43;;;2.00;99.90;;;;;;5050951;28;20611;-77
2022/12/12 00:12:38;;;;;;;11.53;7.50;;;1.80;99.90;;;;;;5051676;28;20523;-78
2022/12/12 00:15:05;;;;;;;14.33;7.40;;;1.90;99.90;;;;;;5051374;28;20621;-79
2022/12/12 00:17:30;;;;;;;14.10;7.07;;;1.90;99.90;;;;;;5053222;28;20182;-79
2022/12/12 00:19:56;;;;;;;11.30;6.10;;;2.00;99.90;;;;;;5052893;28;20457;-80
2022/12/12 00:22:21;;;;;;;12.07;7.60;;;2.00;99.90;;;;;;5053818;28;20167;-79
2022/12/12 00:24:47;;;;;;;11.70;6.57;;;2.00;99.90;;;;;;5060237;28;20568;-80
2022/12/12 00:27:12;;;;;;;9.90;5.80;;;2.00;99.90;;;;;;5057984;28;20167;-80
2022/12/12 00:29:38;;;;;;;12.17;7.63;;;2.00;99.90;;;;;;5058492;28;20220;-80
2022/12/12 00:32:03;;;;;;;14.53;6.23;;;2.00;99.90;;;;;;5054512;28;20185;-79
2022/12/12 00:34:29;;;;;;;17.90;7.53;;;1.90;99.90;;;;;;5054273;28;20186;-79
2022/12/12 00:36:55;;;;;;;13.30;7.63;;;2.00;99.90;;;;;;5053817;28;20636;-79
2022/12/12 00:39:21;;;;;;;11.73;7.13;;;2.00;99.90;;;;;;5054594;28;20178;-79
2022/12/12 00:41:47;;;;;;;10.27;6.20;;;2.00;99.90;;;;;;5054567;28;20627;-79
2022/12/12 00:44:13;;;;;;;16.20;8.63;;;2.00;99.90;;;;;;5055276;28;20490;-80
2022/12/12 00:46:38;;;;;;;13.20;7.10;;;2.00;99.90;;;;;;5053844;28;20542;-79
2022/12/12 00:49:04;;;;;;;17.37;7.43;;;2.00;99.90;;;;;;5054202;28;20180;-78
2022/12/12 00:51:30;;;;;;;17.43;7.10;;;2.00;99.90;;;;;;5055188;28;20193;-79
2022/12/12 00:53:57;;;;;;;12.83;7.27;;;1.90;99.90;;;;;;5053909;28;20275;-79
2022/12/12 00:56:24;;;;;;;11.00;6.73;;;2.00;99.90;;;;;;5054674;28;20548;-79
2022/12/12 00:58:50;;;;;;;13.70;8.23;;;1.90;99.90;;;;;;5053855;28;20451;-79
2022/12/12 01:01:22;;;;;;;11.37;6.60;;;2.00;99.90;;;;;;5054940;28;20448;-78
2022/12/12 01:03:48;;;;;;;11.23;7.67;;;2.00;99.90;;;;;;5055141;28;20436;-79
2022/12/12 01:06:14;;;;;;;14.23;6.83;;;2.00;99.90;;;;;;5054980;28;20412;-78
2022/12/12 01:08:40;;;;;;;12.80;7.20;;;1.90;99.90;;;;;;5055196;28;20401;-79
2022/12/12 01:11:06;;;;;;;13.67;6.60;;;1.80;99.90;;;;;;5055045;28;20190;-80
2022/12/12 01:13:32;;;;;;;10.17;7.00;;;1.90;99.90;;;;;;5054278;28;20187;-78
2022/12/12 01:15:58;;;;;;;11.23;7.87;;;1.80;99.90;;;;;;5054208;28;20479;-79
2022/12/12 01:18:24;;;;;;;13.43;7.23;;;1.80;99.90;;;;;;5054821;28;20170;-78
2022/12/12 01:20:50;;;;;;;14.37;8.17;;;1.80;99.90;;;;;;5053386;28;20202;-80
2022/12/12 01:23:15;;;;;;;12.73;6.07;;;1.80;99.90;;;;;;5054062;28;20479;-78
2022/12/12 01:25:41;;;;;;;14.53;7.73;;;1.80;99.90;;;;;;5054296;28;20177;-79
2022/12/12 01:28:07;;;;;;;10.37;6.60;;;1.70;99.90;;;;;;5052987;28;20209;-78
2022/12/12 01:30:33;;;;;;;18.43;8.03;;;1.70;99.90;;;;;;5053025;28;20237;-78
2022/12/12 01:32:59;;;;;;;15.27;8.70;;;1.70;99.90;;;;;;5054307;28;20401;-79
2022/12/12 01:35:25;;;;;;;13.23;7.73;;;1.60;99.90;;;;;;5051989;28;20261;-79
2022/12/12 01:37:51;;;;;;;15.70;8.37;;;1.50;99.90;;;;;;5053958;28;20416;-79
2022/12/12 01:40:22;;;;;;;10.30;7.27;;;1.60;99.90;;;;;;5054295;28;20449;-79
2022/12/12 01:42:48;;;;;;;13.83;7.07;;;1.50;99.90;;;;;;5054057;28;20381;-79
2022/12/12 01:45:51;;;;;;;10.63;6.73;;;1.60;99.90;;;;;;5053982;28;20404;-78
2022/12/12 01:48:18;;;;;;;13.13;6.83;;;1.60;99.90;;;;;;5054468;28;20453;-79
2022/12/12 01:50:45;;;;;;;13.27;5.93;;;1.50;99.90;;;;;;5052988;28;20398;-77
2022/12/12 01:53:14;;;;;;;14.93;7.07;;;1.50;99.90;;;;;;5054189;28;20947;-79
2022/12/12 01:55:40;;;;;;;10.60;6.83;;;1.50;99.90;;;;;;5054197;28;20452;-79
2022/12/12 01:58:06;;;;;;;14.53;6.63;;;1.40;99.90;;;;;;5054168;28;20491;-78
2022/12/12 02:00:32;;;;;;;10.80;6.20;;;1.40;99.90;;;;;;5053809;28;20202;-80
2022/12/12 02:02:57;;;;;;;10.70;6.30;;;1.50;99.90;;;;;;5052541;28;20517;-79
2022/12/12 02:05:25;;;;;;;11.63;7.43;;;1.50;99.90;;;;;;5052539;28;20470;-79
2022/12/12 02:07:52;;;;;;;14.63;7.33;;;1.50;99.90;;;;;;5054145;28;20247;-79
2022/12/12 02:10:18;;;;;;;14.13;7.37;;;1.50;99.90;;;;;;5054043;28;20413;-79
2022/12/12 02:12:45;;;;;;;12.93;6.30;;;1.50;99.90;;;;;;5053757;28;20409;-79
2022/12/12 02:15:11;;;;;;;9.00;5.67;;;1.50;99.90;;;;;;5052135;28;20181;-78
2022/12/12 02:17:53;;;;;;;8.23;6.10;;;1.50;99.90;;;;;;5052238;28;20463;-77
2022/12/12 02:20:41;;;;;;;20.83;6.83;;;1.50;99.90;;;;;;5053336;28;20962;-79
2022/12/12 02:23:43;;;;;;;10.80;5.70;;;1.30;99.90;;;;;;5053590;28;20421;-79
2022/12/12 02:26:48;;;;;;;9.60;5.57;;;1.20;99.90;;;;;;5052103;28;20408;-79
2022/12/12 02:29:29;;;;;;;8.23;5.50;;;1.00;99.90;;;;;;5041976;28;20503;-80
2022/12/12 02:32:09;;;;;;;12.03;6.40;;;1.10;99.90;;;;;;5053255;28;20524;-79
2022/12/12 02:35:01;;;;;;;11.23;5.77;;;1.10;99.90;;;;;;5053259;28;20492;-79
2022/12/12 02:37:34;;;;;;;9.00;5.00;;;1.00;99.90;;;;;;5051956;28;20445;-78
2022/12/12 02:40:09;;;;;;;14.20;6.00;;;1.00;99.90;;;;;;5053301;28;20453;-79
2022/12/12 02:42:52;;;;;;;10.90;6.70;;;1.00;99.90;;;;;;5053039;28;20391;-78
2022/12/12 02:45:37;;;;;;;9.60;5.97;;;0.90;99.90;;;;;;5051406;28;20424;-80
2022/12/12 02:48:19;;;;;;;8.87;6.10;;;0.80;99.90;;;;;;5051722;28;20401;-79
2022/12/12 02:50:49;;;;;;;10.43;5.17;;;0.80;99.90;;;;;;5052924;28;20833;-79
2022/12/12 02:53:19;;;;;;;10.80;6.07;;;0.80;99.90;;;;;;5052714;28;20426;-79
2022/12/12 02:55:45;;;;;;;10.57;6.30;;;0.90;99.90;;;;;;5052524;28;20405;-78
2022/12/12 02:58:12;;;;;;;11.23;5.83;;;0.80;99.90;;;;;;5052738;28;20443;-79
2022/12/12 03:01:09;;;;;;;11.27;6.40;;;0.90;99.90;;;;;;5052784;28;20244;-77
2022/12/12 03:09:58;;;;;;;12.03;5.83;;;0.90;99.90;;;;;;5052503;28;20372;-79
2022/12/12 03:12:40;;;;;;;12.10;5.40;;;0.90;99.90;;;;;;5052045;28;20449;-78
2022/12/12 03:15:22;;;;;;;12.23;5.70;;;0.90;99.90;;;;;;5052114;28;20381;-79
2022/12/12 03:17:56;;;;;;;9.20;5.87;;;0.80;99.90;;;;;;5052407;28;20445;-79
2022/12/12 03:20:37;;;;;;;10.03;5.53;;;0.80;99.90;;;;;;5052129;28;20484;-78
2022/12/12 03:23:14;;;;;;;8.53;5.13;;;0.60;99.90;;;;;;5051038;28;20421;-79
2022/12/12 03:26:35;;;;;;;7.77;5.50;;;0.50;99.90;;;;;;5050745;28;20401;-79
2022/12/12 03:29:08;;;;;;;8.23;4.70;;;0.50;99.90;;;;;;5006571;28;20421;-79
2022/12/12 03:31:37;;;;;;;7.57;5.17;;;0.30;99.90;;;;;;5052047;28;20431;-79
2022/12/12 03:34:21;;;;;;;10.20;5.87;;;0.20;99.90;;;;;;5052065;28;20417;-79
2022/12/12 03:36:58;;;;;;;8.77;5.67;;;0.20;99.90;;;;;;5050823;28;20496;-79
2022/12/12 03:39:51;;;;;;;11.67;5.70;;;0.20;99.90;;;;;;5052423;28;20510;-80
2022/12/12 03:42:35;;;;;;;6.73;4.60;;;0.10;99.90;;;;;;5052242;28;20425;-79
2022/12/12 03:45:06;;;;;;;10.13;4.90;;;0.00;99.90;;;;;;5051805;28;20413;-78
2022/12/12 03:47:37;;;;;;;12.27;5.27;;;0.00;99.90;;;;;;5050913;28;20590;-80
2022/12/12 03:50:15;;;;;;;8.00;5.17;;;0.10;99.90;;;;;;5050980;28;20418;-79
2022/12/12 03:53:02;;;;;;;11.33;4.80;;;0.10;99.90;;;;;;5050950;28;20409;-79
2022/12/12 03:55:46;;;;;;;12.57;5.20;;;0.00;99.90;;;;;;5051972;28;20447;-79
2022/12/12 03:58:53;;;;;;;11.63;5.53;;;-0.10;99.90;;;;;;5050517;28;20422;-78
2022/12/12 04:01:23;;;;;;;5.70;4.00;;;-0.10;99.90;;;;;;5017228;28;20456;-79
2022/12/12 04:04:04;;;;;;;15.73;5.73;;;-0.20;99.90;;;;;;5033956;28;20461;-79
2022/12/12 04:06:53;;;;;;;9.03;5.60;;;-0.10;99.90;;;;;;5046999;28;20413;-79
2022/12/12 04:15:08;;;;;;;10.53;5.20;;;-0.30;99.90;;;;;;5055296;28;20502;-78
2022/12/12 04:17:52;;;;;;;13.47;5.60;;;-0.40;99.90;;;;;;5054405;28;20423;-79
2022/12/12 04:23:15;;;;;;;10.70;4.90;;;-0.30;99.90;;;;;;5055626;28;20417;-79
2022/12/12 04:29:29;;;;;;;12.00;5.33;;;-0.40;99.90;;;;;;5055600;28;20380;-79
2022/12/12 04:31:55;;;;;;;9.73;5.23;;;-0.40;99.90;;;;;;5032694;28;20436;-80
2022/12/12 04:34:39;;;;;;;8.70;4.27;;;-0.40;99.90;;;;;;5055169;28;20511;-78
2022/12/12 04:37:06;;;;;;;9.37;4.07;;;-0.30;99.90;;;;;;5055598;28;20163;-79
2022/12/12 04:39:35;;;;;;;11.20;5.10;;;-0.30;99.90;;;;;;5053933;28;20856;-77
2022/12/12 04:42:06;;;;;;;8.33;4.97;;;-0.20;99.90;;;;;;5054904;28;20490;-78
2022/12/12 04:44:34;;;;;;;9.83;4.70;;;-0.20;99.90;;;;;;5053565;28;20516;-79
2022/12/12 04:47:01;;;;;;;11.27;4.50;;;-0.20;99.90;;;;;;5055103;28;20409;-77
2022/12/12 04:49:29;;;;;;;9.67;4.47;;;-0.20;99.90;;;;;;5055060;28;20416;-79
2022/12/12 04:52:00;;;;;;;8.03;4.10;;;-0.20;99.90;;;;;;5055032;28;20489;-78
2022/12/12 04:54:36;;;;;;;8.43;4.17;;;-0.20;99.90;;;;;;5054709;28;20452;-79
2022/12/12 04:57:06;;;;;;;7.80;3.93;;;-0.20;99.90;;;;;;5053818;28;20711;-79
2022/12/12 04:59:32;;;;;;;8.37;5.20;;;-0.10;99.90;;;;;;5055113;28;20409;-79
2022/12/12 05:02:24;;;;;;;6.33;4.40;;;-0.30;99.90;;;;;;5053719;28;20468;-77
2022/12/12 05:05:22;;;;;;;10.70;5.80;;;-0.30;99.90;;;;;;5054456;28;20781;-79
2022/12/12 05:08:04;;;;;;;11.67;4.83;;;-0.40;99.90;;;;;;5054637;28;20397;-78
2022/12/12 05:10:30;;;;;;;7.63;4.47;;;-0.20;99.90;;;;;;5054541;28;20404;-80
2022/12/12 05:12:58;;;;;;;8.50;3.67;;;-0.20;99.90;;;;;;5054156;28;20476;-78
2022/12/12 05:15:26;;;;;;;16.03;4.57;;;-0.30;99.90;;;;;;5052882;28;20465;-78
2022/12/12 05:17:57;;;;;;;10.87;5.00;;;-0.30;99.90;;;;;;5054806;28;20415;-79
2022/12/12 05:20:23;;;;;;;7.27;4.10;;;-0.30;99.90;;;;;;5054737;28;20977;-79
2022/12/12 05:22:48;;;;;;;5.40;3.33;;;-0.20;99.90;;;;;;5054756;28;20444;-79
2022/12/12 05:25:14;;;;;;;15.40;4.67;;;-0.20;99.90;;;;;;5053100;28;20174;-78
2022/12/12 05:27:40;;;;;;;9.67;5.33;;;-0.20;99.90;;;;;;5054292;28;20163;-78
2022/12/12 05:30:06;;;;;;;8.37;4.90;;;-0.10;99.90;;;;;;5054568;28;20224;-79
2022/12/12 05:32:32;;;;;;;10.37;6.20;;;-0.20;99.90;;;;;;5054009;28;20829;-78
2022/12/12 05:34:57;;;;;;;7.60;5.47;;;-0.20;99.90;;;;;;5053857;28;20435;-79
2022/12/12 05:37:23;;;;;;;9.23;3.70;;;-0.20;99.90;;;;;;5054531;28;20202;-79
2022/12/12 05:39:48;;;;;;;15.50;5.73;;;-0.20;99.90;;;;;;5054611;28;20246;-79
2022/12/12 05:42:14;;;;;;;15.17;7.77;;;-0.30;99.90;;;;;;5054120;28;20171;-78
2022/12/12 05:44:39;;;;;;;7.10;4.80;;;-0.20;99.90;;;;;;5055334;28;20256;-79
2022/12/12 05:47:05;;;;;;;8.73;3.90;;;-0.20;99.90;;;;;;5056113;28;20174;-79
2022/12/12 05:49:31;;;;;;;11.40;4.20;;;-0.20;99.90;;;;;;5054749;28;20266;-79
2022/12/12 05:51:57;;;;;;;6.90;3.70;;;-0.20;99.90;;;;;;5054309;28;20538;-79
2022/12/12 05:54:22;;;;;;;8.20;3.80;;;-0.30;99.90;;;;;;5053773;28;20187;-79
2022/12/12 05:56:48;;;;;;;7.73;4.20;;;-0.40;99.90;;;;;;5053874;28;20166;-79
2022/12/12 05:59:13;;;;;;;10.90;4.83;;;-0.40;99.90;;;;;;5053482;28;20206;-79
2022/12/12 06:01:39;;;;;;;9.07;4.10;;;-0.40;99.90;;;;;;5054808;28;20195;-79
2022/12/12 06:04:04;;;;;;;9.63;4.80;;;-0.40;99.90;;;;;;5053291;28;20184;-78
2022/12/12 06:06:30;;;;;;;9.87;4.47;;;-0.40;99.90;;;;;;5053454;28;20640;-79
2022/12/12 06:08:55;;;;;;;4.13;2.93;;;-0.30;99.90;;;;;;5054430;28;20580;-78
2022/12/12 06:11:21;;;;;;;9.57;5.70;;;-0.20;99.90;;;;;;5053509;28;20259;-78
2022/12/12 06:13:46;;;;;;;10.20;6.07;;;-0.20;99.90;;;;;;5054215;28;20187;-78
2022/12/12 06:16:16;;;;;;;5.67;2.97;;;-0.20;99.90;;;;;;5053948;28;20179;-80
2022/12/12 06:18:41;;;;;;;7.87;3.87;;;-0.20;99.90;;;;;;5054132;28;20640;-79
2022/12/12 06:21:09;;;;;;;9.40;4.70;;;-0.20;99.90;;;;;;5052917;28;20456;-79
2022/12/12 06:23:39;;;;;;;12.73;5.00;;;-0.20;99.90;;;;;;5052293;28;20225;-79
2022/12/12 06:26:06;;;;;;;8.27;4.70;;;-0.20;99.90;;;;;;5053765;28;20412;-78
2022/12/12 06:28:32;;;;;;;5.83;3.47;;;-0.20;99.90;;;;;;5053788;28;20743;-77
2022/12/12 06:30:58;;;;;;;8.30;4.27;;;-0.20;99.90;;;;;;5057026;28;20433;-81
2022/12/12 06:33:26;;;;;;;8.17;4.20;;;-0.20;99.90;;;;;;5060498;28;20202;-79
2022/12/12 06:36:00;;;;;;;10.80;4.40;;;-0.20;99.90;;;;;;5058789;28;20177;-79
2022/12/12 06:38:25;;;;;;;8.70;5.40;;;-0.10;99.90;;;;;;5051809;28;20420;-79
2022/12/12 06:40:51;;;;;;;5.87;3.37;;;-0.10;99.90;;;;;;5051656;28;20454;-80
2022/12/12 06:43:16;;;;;;;7.07;3.40;;;-0.20;99.90;;;;;;5052744;28;20213;-78
2022/12/12 06:45:42;;;;;;;12.23;4.73;;;-0.20;99.90;;;;;;5051484;28;20171;-78
2022/12/12 06:48:07;;;;;;;6.60;3.00;;;-0.10;99.90;;;;;;5053915;28;20178;-79
2022/12/12 06:50:33;;;;;;;8.40;4.40;;;-0.10;99.90;;;;;;5053495;28;20608;-79
2022/12/12 06:52:58;;;;;;;8.30;4.10;;;-0.20;99.90;;;;;;5052080;28;20637;-78
2022/12/12 06:55:24;;;;;;;7.83;4.63;;;-0.30;99.90;;;;;;5056437;28;20192;-78
2022/12/12 06:57:49;;;;;;;7.00;4.80;;;-0.40;99.90;;;;;;5055258;28;20535;-78
2022/12/12 07:00:15;;;;;;;6.60;4.07;;;-0.30;99.90;;;;;;5056014;28;20195;-79
2022/12/12 07:02:41;;;;;;;9.00;4.73;;;-0.40;99.90;;;;;;5055185;28;20163;-78
2022/12/12 07:05:07;;;;;;;8.10;4.77;;;-0.30;99.90;;;;;;5053042;28;20407;-78
2022/12/12 07:07:33;;;;;;;6.57;3.63;;;-0.40;99.90;;;;;;5053904;28;20170;-79
2022/12/12 07:09:59;;;;;;;6.13;4.07;;;-0.30;99.90;;;;;;5052329;28;20401;-78
2022/12/12 07:12:24;;;;;;;8.03;4.03;;;-0.30;99.90;;;;;;5052319;28;20162;-78
2022/12/12 07:14:50;;;;;;;9.00;4.37;;;-0.40;99.90;;;;;;5052656;28;20644;-78
2022/12/12 07:17:15;;;;;;;5.07;2.97;;;-0.40;99.90;;;;;;5052182;28;20167;-76
2022/12/12 07:19:41;;;;;;;7.53;4.97;;;-0.40;99.90;;;;;;5052356;28;20554;-78
2022/12/12 07:22:06;;;;;;;15.83;5.80;;;-0.40;99.90;;;;;;5051659;28;20203;-78
2022/12/12 07:24:32;;;;;;;7.77;3.50;;;-0.30;99.90;;;;;;5053049;28;20189;-78
2022/12/12 07:26:57;;;;;;;9.80;5.30;;;-0.40;99.90;;;;;;5053082;28;20166;-79
2022/12/12 07:29:23;;;;;;;7.43;4.67;;;-0.40;99.90;;;;;;5053171;28;20300;-78
2022/12/12 07:31:48;;;;;;;12.33;4.47;;;-0.30;99.90;;;;;;5060726;28;20212;-78
2022/12/12 07:34:14;;;;;;;10.20;5.60;;;-0.30;99.90;;;;;;5062796;28;20316;-77
2022/12/12 07:36:39;;;;;;;4.53;3.70;;;-0.40;99.90;;;;;;5063651;28;20636;-78
2022/12/12 07:39:05;;;;;;;8.60;4.30;;;-0.50;99.90;;;;;;5058736;28;20171;-78
2022/12/12 07:41:30;;;;;;;14.33;4.10;;;-0.40;99.90;;;;;;5058199;28;20696;-77
2022/12/12 07:43:56;;;;;;;9.60;4.17;;;-0.30;99.90;;;;;;5058889;28;20232;-78
2022/12/12 07:46:24;;;;;;;7.57;4.03;;;-0.30;99.90;;;;;;5063127;28;20176;-79
2022/12/12 07:48:50;;;;;;;11.20;4.50;;;-0.40;99.90;;;;;;5061261;28;20163;-78
2022/12/12 07:51:16;;;;;;;8.73;4.43;;;-0.40;99.90;;;;;;5060064;28;20422;-78
2022/12/12 07:53:42;;;;;;;8.53;3.70;;;-0.40;99.90;;;;;;5056712;28;20429;-78
2022/12/12 07:56:09;;;;;;;9.13;4.73;;;-0.40;99.90;;;;;;5056312;28;20776;-79
2022/12/12 07:58:35;;;;;;;8.50;4.53;;;-0.30;99.90;;;;;;5064390;28;20175;-79
2022/12/12 08:01:06;;;;;;;8.87;4.90;;;-0.20;99.90;;;;;;5058748;28;20487;-79
2022/12/12 08:03:32;;;;;;;9.10;4.50;;;-0.30;99.90;;;;;;5062493;28;20432;-78
2022/12/12 08:05:58;;;;;;;7.90;4.07;;;-0.10;99.90;;;;;;5063044;28;21085;-78
2022/12/12 08:08:23;;;;;;;9.00;4.50;;;0.00;99.90;;;;;;5056133;28;20173;-79
2022/12/12 08:10:49;;;;;;;8.47;4.27;;;0.10;99.90;;;;;;5055696;28;20521;-78
2022/12/12 08:13:14;;;;;;;6.27;3.80;;;0.20;99.90;;;;;;5055529;28;20270;-78
2022/12/12 08:15:41;;;;;;;4.93;3.50;;;0.30;99.90;;;;;;5055446;28;20174;-78
2022/12/12 08:18:07;;;;;;;7.70;4.13;;;0.30;99.90;;;;;;5054462;28;20543;-79
2022/12/12 08:20:32;;;;;;;8.80;5.03;;;0.40;99.90;;;;;;5056372;28;20453;-79
2022/12/12 08:22:59;;;;;;;7.33;3.87;;;0.50;99.90;;;;;;5056300;28;20174;-79
2022/12/12 08:25:24;;;;;;;9.07;4.00;;;0.40;99.90;;;;;;5056024;28;20208;-79
2022/12/12 08:27:50;;;;;;;6.97;4.70;;;0.50;99.90;;;;;;5055435;28;20400;-80
2022/12/12 08:30:15;;;;;;;13.13;5.30;;;0.80;99.90;;;;;;5055452;28;20274;-78
2022/12/12 08:32:41;;;;;;;10.63;4.60;;;1.50;99.90;;;;;;5055374;28;20769;-79
2022/12/12 08:35:07;;;;;;;10.03;7.13;;;2.10;99.90;;;;;;5057592;28;20167;-79
2022/12/12 08:37:33;;;;;;;6.57;4.50;;;3.10;99.90;;;;;;5058548;28;20166;-80
2022/12/12 08:39:58;;;;;;;8.80;4.53;;;4.60;99.90;;;;;;5057177;28;20412;-80
2022/12/12 08:42:24;;;;;;;7.67;4.63;;;5.90;99.90;;;;;;5057301;28;20481;-79
2022/12/12 08:44:49;;;;;;;9.03;5.80;;;6.30;99.90;;;;;;5057209;28;20242;-79
2022/12/12 08:47:15;;;;;;;9.67;4.97;;;6.50;99.90;;;;;;5057275;28;20167;-79
2022/12/12 08:49:40;;;;;;;9.07;5.30;;;6.60;99.90;;;;;;5057942;28;20187;-79
2022/12/12 08:52:08;;;;;;;11.07;5.57;;;7.50;99.90;;;;;;5057333;28;20644;-79
2022/12/12 08:54:35;;;;;;;9.93;4.97;;;8.90;99.90;;;;;;5058049;28;20652;-79
2022/12/12 08:57:01;;;;;;;12.03;6.50;;;9.50;95.60;;;;;;5057020;28;20428;-80
2022/12/12 08:59:26;;;;;;;9.00;5.10;;;10.30;93.10;;;;;;5056981;28;20413;-80
2022/12/12 09:01:52;;;;;;;10.30;5.73;;;11.10;81.20;;;;;;5058361;28;20464;-79
2022/12/12 09:04:17;;;;;;;10.00;4.30;;;11.50;80.90;;;;;;5058104;28;20312;-79
2022/12/12 09:06:44;;;;;;;10.57;5.20;;;12.10;77.40;;;;;;5057962;28;20174;-80
2022/12/12 09:09:10;;;;;;;10.03;4.87;;;12.60;74.70;;;;;;5057117;28;20257;-80
2022/12/12 09:11:35;;;;;;;8.00;5.00;;;12.90;66.60;;;;;;5056756;28;20463;-80
2022/12/12 09:14:01;;;;;;;9.10;5.30;;;12.50;59.00;;;;;;5054812;28;20217;-80
2022/12/12 09:16:28;;;;;;;9.97;5.43;;;11.80;56.80;;;;;;5055800;28;20178;-80
2022/12/12 09:18:54;;;;;;;10.50;5.40;;;11.30;58.00;;;;;;5054514;28;20171;-80
2022/12/12 09:21:21;;;;;;;12.70;5.13;;;11.40;58.40;;;;;;5054847;28;20997;-79
2022/12/12 09:23:47;;;;;;;7.90;4.80;;;12.00;58.80;;;;;;5054670;28;20432;-80
2022/12/12 09:26:13;;;;;;;6.90;4.43;;;12.90;56.80;;;;;;5054560;28;20412;-80
2022/12/12 09:28:38;;;;;;;9.87;5.73;;;13.90;55.50;;;;;;5054516;28;20492;-80
2022/12/12 09:31:06;;;;;;;11.47;5.63;;;14.90;53.50;;;;;;5056534;28;20577;-81
2022/12/12 09:33:32;;;;;;;10.60;5.43;;;15.40;51.30;;;;;;5056316;28;20232;-80
2022/12/12 09:35:59;;;;;;;8.03;5.00;;;15.80;50.80;;;;;;5057116;28;20409;-79
2022/12/12 09:38:26;;;;;;;6.63;4.80;;;16.40;50.00;;;;;;5059639;28;20577;-80
2022/12/12 09:41:08;;;;;;;7.80;4.40;;;17.00;49.00;;;;;;5058447;28;20517;-79
2022/12/12 09:43:41;;;;;;;7.97;5.07;;;16.70;46.30;;;;;;5060466;28;20425;-80
2022/12/12 09:46:23;;;;;;;8.90;5.17;;;16.70;46.00;;;;;;5060884;28;20898;-80
2022/12/12 09:48:49;;;;;;;6.03;4.33;;;16.90;46.30;;;;;;5060933;28;20414;-80
2022/12/12 09:51:14;;;;;;;8.80;4.70;;;17.30;46.60;;;;;;5061427;28;20412;-80
2022/12/12 09:58:26;;;;;;;10.33;5.50;;;18.30;45.70;;;;;;5060907;28;20238;-78
2022/12/12 10:01:50;;;;;;;8.93;5.47;;;18.60;43.40;;;;;;4984698;28;20457;-78
2022/12/12 10:04:39;;;;;;;9.10;5.37;;;19.60;41.60;;;;;;4980482;28;20429;-78
2022/12/12 10:07:16;;;;;;;5.80;4.80;;;20.70;41.10;;;;;;4990288;28;20904;-78
2022/12/12 10:09:58;;;;;;;8.47;5.47;;;21.90;40.10;;;;;;5025583;28;20492;-77
2022/12/12 10:12:25;;;;;;;9.30;6.50;;;22.30;36.50;;;;;;5057272;28;20413;-78
2022/12/12 10:15:32;;;;;;;9.33;6.30;;;23.00;37.40;;;;;;5055784;28;20429;-78
2022/12/12 10:18:01;;;;;;;6.40;5.07;;;23.40;35.30;;;;;;5055079;28;20408;-78
2022/12/12 10:21:18;;;;;;;8.60;5.23;;;23.50;35.00;;;;;;5070423;28;20524;-78
2022/12/12 10:25:11;;;;;;;9.40;6.10;;;23.20;34.40;;;;;;5054176;28;20883;-80
2022/12/12 10:27:37;;;;;;;7.47;5.57;;;23.30;33.90;;;;;;4908230;29;20888;-79
2022/12/12 10:30:14;;;;;;;9.30;5.73;;;23.70;33.30;;;;;;4987143;28;20492;-80
2022/12/12 10:33:19;;;;;;;9.63;6.20;;;24.40;33.70;;;;;;5052860;28;20264;-81
2022/12/12 10:36:01;;;;;;;11.77;6.80;;;25.00;33.90;;;;;;5055209;28;20894;-80
2022/12/12 10:38:48;;;;;;;12.37;8.30;;;25.30;32.60;;;;;;5052426;28;20445;-80
2022/12/12 10:42:06;;;;;;;14.53;8.83;;;25.40;32.90;;;;;;5059172;28;20435;-80
2022/12/12 10:44:42;;;;;;;13.90;6.80;;;25.40;32.70;;;;;;5034024;28;20437;-80
2022/12/12 10:47:10;;;;;;;8.70;6.60;;;24.40;30.10;;;;;;5052322;28;20547;-80
2022/12/12 10:49:36;;;;;;;9.10;6.60;;;24.20;31.20;;;;;;5052349;28;20420;-80
2022/12/12 10:52:14;;;;;;;9.00;5.80;;;24.80;31.90;;;;;;5053581;28;20421;-80
2022/12/12 10:54:59;;;;;;;9.57;5.43;;;25.40;32.20;;;;;;5056462;28;20440;-81
2022/12/12 10:57:27;;;;;;;10.03;5.83;;;26.00;32.10;;;;;;5063731;28;20404;-80
2022/12/12 10:59:56;;;;;;;10.17;6.40;;;25.90;30.20;;;;;;5064517;28;20460;-79
2022/12/12 11:02:40;;;;;;;13.47;6.30;;;26.10;31.00;;;;;;5055930;28;20447;-80
2022/12/12 11:05:26;;;;;;;11.33;6.40;;;25.70;29.90;;;;;;5054222;28;20531;-80
2022/12/12 11:08:16;;;;;;;11.13;7.13;;;25.30;30.20;;;;;;5055726;28;20381;-81
2022/12/12 11:10:43;;;;;;;11.40;7.80;;;24.70;30.40;;;;;;5054613;28;20425;-81
2022/12/12 11:13:08;;;;;;;11.63;7.93;;;24.40;30.40;;;;;;5054759;28;20433;-80
2022/12/12 11:15:49;;;;;;;9.67;7.53;;;24.20;30.00;;;;;;5055781;28;20492;-80
2022/12/12 11:18:18;;;;;;;10.80;7.00;;;24.10;30.20;;;;;;5055426;28;20174;-81
2022/12/12 11:21:07;;;;;;;11.77;6.67;;;24.60;31.00;;;;;;5054657;28;20460;-80
2022/12/12 11:23:37;;;;;;;10.70;6.83;;;24.60;30.50;;;;;;5053950;28;20449;-80
2022/12/12 11:26:10;;;;;;;11.40;6.57;;;25.20;31.40;;;;;;5053063;28;20394;-78
2022/12/12 11:28:37;;;;;;;14.93;6.70;;;25.50;30.00;;;;;;5052711;28;20817;-80
2022/12/12 11:31:18;;;;;;;8.30;6.23;;;25.80;30.50;;;;;;5052646;28;20429;-79
2022/12/12 11:33:50;;;;;;;11.63;6.53;;;25.90;29.80;;;;;;5052960;28;20452;-79
2022/12/12 11:36:19;;;;;;;7.73;5.73;;;25.80;29.50;;;;;;5053086;28;20500;-79
2022/12/12 11:38:54;;;;;;;7.60;6.30;;;26.00;29.70;;;;;;5055485;28;20405;-79
2022/12/12 11:41:21;;;;;;;14.93;6.53;;;26.20;29.60;;;;;;5059437;28;20483;-78
2022/12/12 11:43:46;;;;;;;9.97;6.10;;;26.10;28.70;;;;;;5059126;28;20417;-78
2022/12/12 11:46:16;;;;;;;9.53;6.30;;;26.10;29.20;;;;;;5058594;28;21048;-76
2022/12/12 11:48:50;;;;;;;8.60;6.90;;;26.10;29.40;;;;;;5061125;28;20309;-78
2022/12/12 11:51:34;;;;;;;9.33;6.80;;;25.40;28.70;;;;;;5058549;28;20506;-78
2022/12/12 11:54:02;;;;;;;7.00;5.80;;;23.50;29.20;;;;;;5054528;28;20582;-78
2022/12/12 11:56:40;;;;;;;10.03;6.03;;;22.20;30.00;;;;;;5054092;28;20471;-78
2022/12/12 11:59:15;;;;;;;7.27;5.37;;;22.50;30.90;;;;;;5056725;28;20483;-78
2022/12/12 12:01:43;;;;;;;10.50;6.50;;;22.90;31.10;;;;;;5059624;28;21067;-78
2022/12/12 12:04:21;;;;;;;14.50;6.40;;;23.20;31.00;;;;;;5057935;28;20483;-78
2022/12/12 12:06:56;;;;;;;9.30;6.60;;;23.70;30.80;;;;;;5059041;28;20752;-78
2022/12/12 12:09:35;;;;;;;9.83;5.90;;;24.50;31.60;;;;;;5060749;28;20409;-78
2022/12/12 12:12:00;;;;;;;13.10;7.40;;;25.10;30.70;;;;;;5062542;28;20405;-78
2022/12/12 12:14:50;;;;;;;9.37;6.37;;;25.30;30.00;;;;;;5062127;28;21028;-78
2022/12/12 12:17:18;;;;;;;10.70;6.57;;;25.80;31.20;;;;;;5059667;28;20175;-78
2022/12/12 12:20:25;;;;;;;6.57;5.97;;;25.90;29.80;;;;;;5057890;28;20458;-78
2022/12/12 12:23:18;;;;;;;9.93;6.03;;;25.90;29.40;;;;;;5060506;28;20435;-78
2022/12/12 12:25:54;;;;;;;7.10;5.97;;;26.00;29.40;;;;;;5061879;28;20476;-78
2022/12/12 12:28:53;;;;;;;12.33;7.53;;;26.30;30.30;;;;;;5061690;28;20397;-78
2022/12/12 12:31:32;;;;;;;14.07;7.23;;;26.50;29.00;;;;;;5061246;28;20468;-78
2022/12/12 12:34:20;;;;;;;8.33;6.13;;;26.80;29.70;;;;;;5058653;28;20439;-78
2022/12/12 12:36:54;;;;;;;10.03;7.17;;;27.20;30.40;;;;;;5061769;28;20409;-80
2022/12/12 12:39:42;;;;;;;7.40;6.20;;;27.10;28.50;;;;;;5056534;28;20767;-76
2022/12/12 12:42:38;;;;;;;7.93;5.57;;;27.00;29.00;;;;;;5059401;28;20468;-76
2022/12/12 12:45:22;;;;;;;7.47;6.40;;;26.80;29.30;;;;;;5056828;28;20417;-74
2022/12/12 12:48:00;;;;;;;9.30;6.67;;;27.00;30.10;;;;;;5059248;28;20404;-76
2022/12/12 12:50:39;;;;;;;7.60;5.80;;;27.20;30.00;;;;;;5061526;28;20440;-77
2022/12/12 12:53:38;;;;;;;9.23;6.23;;;27.40;30.10;;;;;;5060321;28;20433;-77
2022/12/12 12:56:32;;;;;;;12.83;7.80;;;27.50;30.20;;;;;;5058769;28;20416;-76
2022/12/12 12:59:09;;;;;;;8.97;7.40;;;27.40;28.80;;;;;;5060796;28;20452;-75
2022/12/12 13:01:42;;;;;;;10.80;7.40;;;26.70;28.30;;;;;;5054174;28;21062;-76
2022/12/12 13:04:10;;;;;;;11.73;7.20;;;26.00;28.40;;;;;;5055166;28;20413;-76
2022/12/12 13:06:46;;;;;;;9.53;7.50;;;25.80;29.00;;;;;;5055957;28;20547;-75
2022/12/12 13:09:37;;;;;;;10.73;7.47;;;25.20;28.50;;;;;;5055988;28;20551;-77
2022/12/12 13:12:14;;;;;;;9.30;6.87;;;24.20;29.00;;;;;;5061793;28;20778;-77
2022/12/12 13:15:00;;;;;;;10.80;6.87;;;24.10;29.60;;;;;;5066955;28;20815;-78
2022/12/12 13:17:42;;;;;;;10.47;6.17;;;23.60;29.40;;;;;;5065400;28;20413;-78
2022/12/12 13:20:16;;;;;;;11.63;7.30;;;23.80;30.60;;;;;;5055927;28;20574;-77
2022/12/12 13:22:54;;;;;;;10.30;7.50;;;23.60;29.80;;;;;;5053239;28;20421;-74
2022/12/12 13:25:34;;;;;;;9.47;6.60;;;23.70;30.80;;;;;;5053910;28;20463;-74
2022/12/12 13:28:04;;;;;;;9.00;5.90;;;24.10;31.20;;;;;;5054131;28;20397;-75
2022/12/12 13:30:47;;;;;;;8.03;6.40;;;23.70;29.60;;;;;;5054021;28;20841;-75
2022/12/12 13:33:33;;;;;;;9.73;6.73;;;22.50;29.20;;;;;;5054434;28;20424;-75
2022/12/12 13:36:13;;;;;;;10.47;6.80;;;20.60;29.50;;;;;;5053681;28;20416;-74